Time;durP1;ratioP1;P1;durP2;ratioP2;P2;SDS_P1;SDS_P2;PMS_P1;PMS_P2;Temp;Humidity;BMP_temperature;BMP_pressure;BME280_temperature;BME280_humidity;BME280_pressure;Samples;Min_cycle;Max_cycle;Signal;HPM_P1;HPM_P2
2023/08/31 00:13:20;;;;;;;8.50;5.80;;;;;;;15.26;93.74;97822.00;436283;1251;112069;-41
2023/08/31 00:23:36;;;;;;;6.80;5.60;;;;;;;15.28;93.46;97822.10;424901;1283;635982;-41
2023/08/31 00:33:43;;;;;;;;;;;;;;;15.21;93.44;97827.91;433062;1263;556696;-42
2023/08/31 00:43:48;;;;;;;13.60;6.90;;;;;;;15.10;93.40;97831.98;435399;1251;110919;-41
2023/08/31 00:53:55;;;;;;;11.70;8.10;;;;;;;15.06;93.68;97833.61;435511;1256;95375;-41
2023/08/31 01:04:00;;;;;;;12.70;6.90;;;;;;;15.04;93.47;97835.33;435429;1251;107197;-41
2023/08/31 01:14:07;;;;;;;9.10;7.00;;;;;;;14.99;93.55;97832.86;435451;1251;107820;-42
2023/08/31 01:24:17;;;;;;;12.30;6.10;;;;;;;15.05;93.84;97837.61;436174;1255;95447;-41
2023/08/31 01:34:24;;;;;;;10.20;6.40;;;;;;;15.12;93.86;97835.05;435231;1254;107105;-42
2023/08/31 02:04:45;;;;;;;8.70;6.60;;;;;;;14.99;93.70;97817.54;435294;1256;108686;-41
2023/08/31 02:14:52;;;;;;;6.60;5.90;;;;;;;14.92;93.63;97815.46;435186;1254;107692;-41
2023/08/31 02:25:00;;;;;;;11.60;5.90;;;;;;;14.87;93.56;97816.13;435152;1256;96124;-42
2023/08/31 02:35:09;;;;;;;8.60;6.30;;;;;;;14.73;93.59;97814.26;435222;1256;108931;-42
2023/08/31 02:45:17;;;;;;;7.50;6.80;;;;;;;14.64;93.46;97818.52;435133;1253;95267;-43
2023/08/31 02:55:24;;;;;;;10.50;5.60;;;;;;;14.65;94.02;97824.80;435278;1256;109487;-41
2023/08/31 03:05:31;;;;;;;11.90;6.90;;;;;;;14.70;93.87;97835.14;435111;1257;107183;-42
2023/08/31 03:15:38;;;;;;;7.60;5.80;;;;;;;14.66;93.94;97845.16;435189;1254;95650;-41
2023/08/31 03:25:45;;;;;;;8.40;5.00;;;;;;;14.72;93.98;97847.69;435150;1256;110401;-42
2023/08/31 03:35:52;;;;;;;7.50;6.10;;;;;;;14.77;94.22;97853.62;435168;1254;96128;-42
2023/08/31 03:46:00;;;;;;;13.50;7.40;;;;;;;14.83;94.28;97856.87;435436;1253;107983;-41
2023/08/31 03:56:07;;;;;;;7.00;6.30;;;;;;;14.65;93.87;97859.69;435586;1256;107489;-41
2023/08/31 04:06:13;;;;;;;7.00;6.00;;;;;;;14.66;94.06;97870.75;435376;1252;96122;-46
2023/08/31 04:16:18;;;;;;;7.10;6.20;;;;;;;14.64;94.01;97876.29;435287;1253;109440;-42
2023/08/31 04:26:25;;;;;;;8.50;7.40;;;;;;;14.76;94.19;97880.23;435253;1254;108000;-42
2023/08/31 04:36:32;;;;;;;10.20;8.90;;;;;;;14.89;94.02;97888.36;435219;1253;95447;-43
2023/08/31 04:46:41;;;;;;;12.70;10.40;;;;;;;15.11;93.76;97882.36;435290;1254;107770;-42
2023/08/31 04:56:46;;;;;;;;;;;;;;;15.17;93.71;97877.25;435278;1253;95691;-42
2023/08/31 05:06:53;;;;;;;11.30;9.70;;;;;;;15.52;94.10;97878.60;435151;1256;96106;-42
2023/08/31 05:17:02;;;;;;;10.10;7.40;;;;;;;16.84;95.01;97877.90;435190;1254;108870;-41
2023/08/31 05:37:15;;;;;;;8.20;7.40;;;;;;;17.60;91.63;97898.64;435333;1253;96518;-42
2023/08/31 05:47:20;;;;;;;9.30;5.60;;;;;;;17.24;91.43;97915.45;435138;1254;109040;-42
2023/08/31 05:57:28;;;;;;;5.70;4.80;;;;;;;17.01;91.15;97923.94;435172;1254;108154;-42
2023/08/31 06:07:36;;;;;;;8.70;5.40;;;;;;;16.93;91.09;97935.09;435093;1254;96127;-40
2023/08/31 06:37:55;;;;;;;8.60;6.20;;;;;;;17.23;90.11;97947.77;435161;1256;96523;-41
2023/08/31 06:48:04;;;;;;;12.00;6.00;;;;;;;17.16;89.96;97955.67;435308;1255;108187;-43
2023/08/31 06:58:11;;;;;;;9.20;5.60;;;;;;;17.34;90.30;97950.70;435386;1254;107507;-41
2023/08/31 07:08:19;;;;;;;7.60;4.70;;;;;;;17.48;89.46;97951.30;435230;1254;96122;-41
2023/08/31 07:18:26;;;;;;;4.60;4.20;;;;;;;17.50;89.54;97954.54;435342;1256;107239;-43
2023/08/31 07:28:33;;;;;;;6.20;3.70;;;;;;;18.47;89.98;97957.98;435182;1256;95785;-42
2023/08/31 07:38:41;;;;;;;8.30;3.60;;;;;;;19.33;89.36;97966.49;435301;1256;96553;-42
2023/08/31 07:58:53;;;;;;;3.00;2.60;;;;;;;21.18;86.90;97993.57;435398;1256;107458;-41
2023/08/31 08:19:07;;;;;;;3.00;2.60;;;;;;;22.25;82.72;97989.79;435347;1254;96202;-42
2023/08/31 08:29:14;;;;;;;3.20;2.90;;;;;;;22.12;81.57;98000.02;435274;1254;108674;-41
2023/08/31 08:39:21;;;;;;;4.10;2.90;;;;;;;22.38;80.06;98007.89;435657;1253;95339;-41
2023/08/31 08:49:27;;;;;;;2.40;2.20;;;;;;;22.43;78.62;98016.98;434620;1258;95677;-41
2023/08/31 08:59:35;;;;;;;3.70;2.30;;;;;;;22.27;77.85;98015.20;434579;1256;109374;-41
2023/08/31 09:09:55;;;;;;;3.50;2.60;;;;;;;22.29;77.00;98029.84;434586;1258;108044;-39
2023/08/31 09:30:06;;;;;;;2.20;2.00;;;;;;;23.01;75.56;98033.09;434731;1254;95915;-42
2023/08/31 09:40:16;;;;;;;4.20;2.50;;;;;;;23.55;74.26;98038.83;434619;1259;107709;-41
2023/08/31 09:50:24;;;;;;;4.10;2.30;;;;;;;23.35;73.28;98049.46;434612;1254;95291;-41
2023/08/31 10:10:38;;;;;;;3.90;2.90;;;;;;;22.98;70.98;98044.30;434946;1257;108346;-42
2023/08/31 10:20:43;;;;;;;4.30;2.70;;;;;;;22.95;70.77;98043.20;434824;1259;108503;-41
2023/08/31 10:51:25;;;;;;;3.10;2.80;;;;;;;22.50;69.12;98042.80;434751;1257;109975;-39
2023/08/31 11:01:59;;;;;;;4.10;2.70;;;;;;;22.59;69.22;98047.08;435013;1257;107728;-42
2023/08/31 11:12:06;;;;;;;2.80;2.50;;;;;;;22.39;68.76;98055.41;434680;1259;96145;-43
2023/08/31 11:32:23;;;;;;;2.70;2.50;;;;;;;22.88;68.14;98057.08;434925;1259;107190;-42
2023/08/31 11:42:29;;;;;;;2.40;2.20;;;;;;;23.28;66.64;98050.04;434819;1254;107853;-42
2023/08/31 11:52:38;;;;;;;3.40;2.20;;;;;;;23.17;65.33;98051.47;434931;1253;118456;-41
2023/08/31 12:12:52;;;;;;;;;;;;;;;22.54;64.10;98057.74;434827;1259;107877;-41
2023/08/31 12:23:00;;;;;;;10.30;2.80;;;;;;;22.25;64.17;98070.74;434849;1256;95289;-41
2023/08/31 12:33:07;;;;;;;2.80;2.50;;;;;;;21.66;63.58;98082.19;434544;1253;449445;-43
2023/08/31 12:43:16;;;;;;;3.20;2.80;;;;;;;20.93;63.64;98097.15;434824;1259;108656;-42
2023/08/31 13:03:29;;;;;;;5.40;3.10;;;;;;;19.71;66.11;98152.99;434779;1258;95393;-44
2023/08/31 13:13:36;;;;;;;2.40;2.20;;;;;;;20.04;68.21;98148.96;434834;1259;107674;-43
2023/08/31 13:33:49;;;;;;;5.60;3.60;;;;;;;20.03;69.49;98157.92;435014;1254;95336;-44
2023/08/31 13:43:56;;;;;;;6.20;3.90;;;;;;;19.51;70.45;98160.30;434945;1257;109218;-43
2023/08/31 14:04:13;;;;;;;5.40;2.60;;;;;;;19.96;71.63;98161.20;434956;1254;95226;-44
2023/08/31 14:24:26;;;;;;;5.60;3.60;;;;;;;20.07;71.56;98170.94;434996;1259;107687;-42
2023/08/31 14:34:33;;;;;;;3.60;3.20;;;;;;;19.99;71.17;98180.56;435146;1257;96341;-42
2023/08/31 14:44:41;;;;;;;3.60;3.00;;;;;;;19.81;70.56;98183.54;434935;1257;97289;-42
2023/08/31 14:54:48;;;;;;;7.70;3.40;;;;;;;19.62;70.56;98186.50;434897;1257;109783;-42
2023/08/31 15:04:54;;;;;;;5.80;2.80;;;;;;;19.62;70.20;98186.70;434719;1256;108575;-43
2023/08/31 15:35:16;;;;;;;5.20;2.40;;;;;;;19.11;68.30;98228.77;434683;1260;109583;-48
2023/08/31 15:45:21;;;;;;;3.80;2.80;;;;;;;18.77;68.41;98242.14;434627;1260;108087;-43
2023/08/31 16:05:33;;;;;;;6.70;2.70;;;;;;;18.79;68.43;98246.81;434719;1256;95754;-43
2023/08/31 16:25:54;;;;;;;3.50;3.20;;;;;;;18.63;68.75;98265.26;434775;1257;106826;-43
2023/08/31 16:35:59;;;;;;;4.70;3.40;;;;;;;18.35;68.66;98266.92;434706;1267;96180;-44
2023/08/31 16:46:05;;;;;;;3.50;3.20;;;;;;;18.15;68.92;98269.11;434788;1257;95866;-43
2023/08/31 16:56:12;;;;;;;4.10;3.10;;;;;;;17.91;69.23;98267.77;434751;1258;108006;-43
2023/08/31 17:16:25;;;;;;;3.30;2.90;;;;;;;17.49;70.01;98272.95;434764;1254;110348;-43
2023/08/31 17:26:32;;;;;;;7.00;3.30;;;;;;;17.10;70.68;98272.89;435146;1256;107658;-42
2023/08/31 17:36:39;;;;;;;9.60;4.60;;;;;;;16.62;71.37;98274.93;434954;1256;97971;-42
2023/08/31 17:46:46;;;;;;;7.60;4.50;;;;;;;16.07;71.78;98285.36;435498;1254;111287;-42
2023/08/31 17:56:51;;;;;;;13.60;4.60;;;;;;;15.73;72.52;98293.27;434950;1256;109180;-43
2023/08/31 18:06:58;;;;;;;13.80;4.60;;;;;;;15.45;73.25;98308.60;434826;1257;97899;-43
2023/08/31 18:17:05;;;;;;;6.90;5.00;;;;;;;15.23;73.97;98323.01;434763;1254;109356;-45
2023/08/31 18:27:12;;;;;;;10.80;7.20;;;;;;;15.02;74.46;98341.31;434779;1254;97886;-42
2023/08/31 18:37:19;;;;;;;13.00;6.50;;;;;;;14.73;74.98;98348.77;434879;1254;110908;-42
2023/08/31 18:47:26;;;;;;;13.60;7.30;;;;;;;14.51;75.53;98351.08;434631;1257;107641;-43
2023/08/31 18:57:33;;;;;;;17.60;10.50;;;;;;;14.43;75.93;98356.88;434585;1253;97922;-44
2023/08/31 19:07:40;;;;;;;17.70;10.60;;;;;;;14.47;76.43;98365.54;434459;1270;110758;-43
2023/08/31 19:27:53;;;;;;;17.90;13.10;;;;;;;14.44;76.94;98378.42;434605;1257;97878;-42
2023/08/31 19:38:00;;;;;;;16.00;11.70;;;;;;;14.21;77.07;98378.90;434390;1253;110261;-42
2023/08/31 19:48:08;;;;;;;16.30;10.60;;;;;;;14.03;77.24;98386.48;434333;1257;107633;-43
2023/08/31 19:58:16;;;;;;;12.70;9.50;;;;;;;13.97;77.35;98391.48;434368;1257;97973;-41
2023/08/31 20:08:23;;;;;;;16.80;10.20;;;;;;;13.91;77.41;98396.33;434293;1257;108531;-43
2023/08/31 20:18:31;;;;;;;12.10;8.30;;;;;;;13.83;77.52;98411.05;434392;1257;97874;-42
2023/08/31 20:38:42;;;;;;;7.40;5.90;;;;;;;13.22;77.47;98429.69;434779;1257;97987;-43
2023/08/31 20:48:47;;;;;;;12.10;7.80;;;;;;;12.98;77.86;98427.27;434975;1259;97863;-43
2023/08/31 21:09:03;;;;;;;13.70;6.60;;;;;;;12.62;78.35;98426.23;434762;1257;107820;-44
2023/08/31 21:29:15;;;;;;;7.90;5.80;;;;;;;12.44;78.97;98448.06;434631;1257;108568;-44
2023/08/31 21:49:28;;;;;;;11.10;6.80;;;;;;;12.20;79.72;98457.88;434582;1259;109512;-43
2023/08/31 21:59:34;;;;;;;9.80;8.00;;;;;;;12.08;79.72;98463.95;434536;1253;108998;-43
2023/08/31 22:19:48;;;;;;;16.10;9.60;;;;;;;12.00;80.51;98473.73;434450;1257;108293;-44
2023/08/31 22:29:55;;;;;;;20.80;10.60;;;;;;;11.94;80.64;98482.88;434481;1253;97138;-43
2023/08/31 22:40:02;;;;;;;14.10;9.60;;;;;;;11.88;81.09;98484.16;434387;1256;111056;-42
2023/08/31 23:00:15;;;;;;;14.10;9.20;;;;;;;11.69;81.43;98468.52;434478;1257;97896;-45
2023/08/31 23:10:20;;;;;;;;;;;;;;;11.58;81.88;98468.56;434531;1259;108595;-43
2023/08/31 23:20:38;;;;;;;12.90;8.50;;;;;;;11.54;82.21;98477.05;434349;1253;97883;-42
2023/08/31 23:30:45;;;;;;;15.40;9.10;;;;;;;11.41;82.36;98477.08;434513;1254;111573;-44
2023/08/31 23:40:56;;;;;;;12.60;8.00;;;;;;;11.35;82.79;98483.67;434257;1257;107447;-43
2023/08/31 23:51:02;;;;;;;17.50;8.60;;;;;;;11.34;83.09;98481.95;434368;1258;98043;-42
